Time;durP1;ratioP1;P1;durP2;ratioP2;P2;SDS_P1;SDS_P2;PMS_P1;PMS_P2;Temp;Humidity;BMP_temperature;BMP_pressure;BME280_temperature;BME280_humidity;BME280_pressure;Samples;Min_cycle;Max_cycle;Signal;HPM_P1;HPM_P2
2022/03/24 00:02:02;;;;;;;82.43;48.03;;;4.50;99.90;;;;;;4978440;28;20097;-84
2022/03/24 00:04:28;;;;;;;79.20;47.28;;;4.40;99.90;;;;;;4980062;28;20125;-84
2022/03/24 00:06:53;;;;;;;82.38;49.00;;;5.40;99.90;;;;;;4979134;28;20039;-84
2022/03/24 00:09:19;;;;;;;76.07;47.83;;;5.40;99.90;;;;;;4992211;28;20385;-84
2022/03/24 00:11:46;;;;;;;75.55;45.80;;;4.40;99.90;;;;;;4993909;28;20070;-84
2022/03/24 00:14:12;;;;;;;67.38;44.72;;;4.40;99.90;;;;;;4977962;28;20096;-84
2022/03/24 00:16:38;;;;;;;68.80;43.05;;;4.30;99.90;;;;;;4979559;28;20038;-84
2022/03/24 00:19:03;;;;;;;69.25;43.42;;;4.20;99.90;;;;;;4963044;28;20245;-84
2022/03/24 00:21:29;;;;;;;71.45;42.20;;;5.10;99.90;;;;;;4994281;28;20038;-84
2022/03/24 00:23:55;;;;;;;76.07;45.83;;;4.20;99.90;;;;;;4977285;28;20034;-84
2022/03/24 00:26:21;;;;;;;76.30;46.47;;;4.20;99.90;;;;;;4958229;28;20034;-84
2022/03/24 00:28:46;;;;;;;72.18;45.92;;;4.70;99.90;;;;;;4973512;28;20042;-84
2022/03/24 00:31:12;;;;;;;77.70;46.30;;;4.10;99.90;;;;;;4989330;28;20174;-84
2022/03/24 00:33:38;;;;;;;81.40;47.42;;;4.10;99.90;;;;;;4993875;28;20133;-84
2022/03/24 00:36:10;;;;;;;78.85;46.67;;;4.10;99.90;;;;;;4992364;28;20133;-84
2022/03/24 00:38:36;;;;;;;74.80;45.95;;;4.10;99.90;;;;;;4995198;28;20045;-84
2022/03/24 00:41:02;;;;;;;84.55;48.25;;;4.00;99.90;;;;;;4978692;28;20034;-84
2022/03/24 00:43:29;;;;;;;82.05;48.40;;;4.00;99.90;;;;;;4995968;28;20041;-84
2022/03/24 00:45:55;;;;;;;78.32;47.63;;;4.00;99.90;;;;;;4980874;28;20038;-84
2022/03/24 00:48:20;;;;;;;89.95;49.53;;;4.10;99.90;;;;;;5010573;28;20503;-83
2022/03/24 00:50:46;;;;;;;85.80;47.65;;;4.40;99.90;;;;;;4980550;28;20515;-84
2022/03/24 00:53:12;;;;;;;88.10;51.15;;;3.90;99.90;;;;;;4962890;28;20144;-84
2022/03/24 00:55:39;;;;;;;88.43;50.72;;;3.80;99.90;;;;;;4996171;28;20038;-84
2022/03/24 00:58:06;;;;;;;90.70;52.50;;;3.90;99.90;;;;;;4994635;28;20077;-84
2022/03/24 01:00:32;;;;;;;82.15;49.35;;;3.80;99.90;;;;;;4993460;28;20041;-84
2022/03/24 01:02:58;;;;;;;82.00;48.53;;;3.80;99.90;;;;;;4979743;28;20091;-84
2022/03/24 01:05:27;;;;;;;85.20;48.55;;;3.80;99.90;;;;;;4964523;28;20124;-82
2022/03/24 01:07:54;;;;;;;76.13;44.15;;;3.80;99.90;;;;;;4996713;28;20041;-83
2022/03/24 01:10:21;;;;;;;79.85;47.22;;;3.70;99.90;;;;;;4996758;28;20077;-83
2022/03/24 01:12:48;;;;;;;77.65;45.10;;;4.40;99.90;;;;;;4978231;28;20049;-83
2022/03/24 01:15:16;;;;;;;80.13;47.60;;;3.60;99.90;;;;;;4993436;28;20408;-83
2022/03/24 01:17:42;;;;;;;81.97;47.17;;;4.40;99.90;;;;;;4976880;28;20083;-83
2022/03/24 01:20:09;;;;;;;84.68;48.70;;;3.80;99.90;;;;;;4993741;28;20480;-83
2022/03/24 01:22:35;;;;;;;89.45;50.17;;;3.60;99.90;;;;;;4977897;28;20061;-85
2022/03/24 01:25:01;;;;;;;90.20;50.72;;;3.60;99.90;;;;;;4977352;28;20038;-84
2022/03/24 01:27:28;;;;;;;93.20;51.53;;;4.00;99.90;;;;;;4991879;28;20038;-84
2022/03/24 01:29:55;;;;;;;88.70;49.47;;;4.30;99.90;;;;;;4977535;28;20096;-84
2022/03/24 01:32:26;;;;;;;88.40;50.53;;;3.60;99.90;;;;;;4992265;28;20096;-84
2022/03/24 01:34:53;;;;;;;88.85;51.13;;;3.60;99.90;;;;;;4993232;28;20100;-84
2022/03/24 01:37:19;;;;;;;89.60;51.25;;;3.60;99.90;;;;;;4992884;28;20041;-84
2022/03/24 01:39:45;;;;;;;105.03;55.90;;;3.60;99.90;;;;;;4976514;28;20038;-83
2022/03/24 01:42:13;;;;;;;102.63;54.00;;;3.60;99.90;;;;;;4990830;28;20073;-82
2022/03/24 01:44:39;;;;;;;102.43;54.45;;;3.60;99.90;;;;;;4960721;28;20102;-83
2022/03/24 01:47:09;;;;;;;96.75;50.30;;;3.50;99.90;;;;;;4972616;23;20105;-83
2022/03/24 01:49:43;;;;;;;92.72;49.72;;;4.20;99.90;;;;;;4971524;28;20043;-83
2022/03/24 01:52:11;;;;;;;98.28;52.80;;;3.50;99.90;;;;;;4954199;28;20055;-83
2022/03/24 01:54:43;;;;;;;97.18;51.92;;;3.50;99.90;;;;;;4955452;28;20046;-83
2022/03/24 01:57:13;;;;;;;115.05;57.78;;;3.50;99.90;;;;;;4971358;28;20058;-83
2022/03/24 01:59:40;;;;;;;99.90;54.00;;;3.40;99.90;;;;;;4953941;28;20489;-82
2022/03/24 02:02:07;;;;;;;105.25;54.30;;;3.50;99.90;;;;;;4953850;28;20042;-82
2022/03/24 02:04:36;;;;;;;102.15;55.00;;;3.40;99.90;;;;;;4956113;28;20039;-83
2022/03/24 02:07:06;;;;;;;94.38;52.55;;;3.40;99.90;;;;;;4954359;28;20035;-82
2022/03/24 02:09:36;;;;;;;95.72;51.10;;;3.40;99.90;;;;;;4955182;28;20093;-82
2022/03/24 02:12:12;;;;;;;104.75;54.72;;;3.40;99.90;;;;;;4949900;28;20047;-84
2022/03/24 02:14:38;;;;;;;;;;;3.30;99.90;;;;;;4953740;28;20409;-84
2022/03/24 02:17:05;;;;;;;93.20;49.70;;;3.30;99.90;;;;;;4954694;28;19917;-84
2022/03/24 02:19:31;;;;;;;99.28;51.58;;;3.20;99.90;;;;;;4954323;28;20302;-84
2022/03/24 02:22:10;;;;;;;89.93;49.75;;;4.30;99.90;;;;;;4971239;28;20050;-84
2022/03/24 02:24:37;;;;;;;94.15;50.50;;;3.20;99.90;;;;;;4953534;28;20397;-84
2022/03/24 02:27:03;;;;;;;86.47;48.63;;;3.20;99.90;;;;;;4960366;28;20030;-84
2022/03/24 02:29:29;;;;;;;88.63;49.53;;;3.10;99.90;;;;;;4923628;28;20046;-84
2022/03/24 02:31:55;;;;;;;91.75;49.15;;;3.10;99.90;;;;;;4941117;28;20038;-84
2022/03/24 02:34:38;;;;;;;77.82;45.03;;;3.00;99.90;;;;;;4956154;28;20046;-84
2022/03/24 02:37:13;;;;;;;80.80;46.53;;;3.00;99.90;;;;;;4936506;28;20046;-84
2022/03/24 02:39:42;;;;;;;80.10;45.88;;;3.00;99.90;;;;;;4969835;28;20454;-84
2022/03/24 02:42:14;;;;;;;86.85;48.40;;;3.90;99.90;;;;;;4939469;28;20038;-84
2022/03/24 02:44:43;;;;;;;93.35;49.25;;;3.00;99.90;;;;;;4968451;28;20122;-83
2022/03/24 02:47:10;;;;;;;96.50;51.80;;;3.60;99.90;;;;;;4959354;28;20051;-82
2022/03/24 02:49:37;;;;;;;106.10;54.65;;;2.90;99.90;;;;;;4973212;28;20084;-82
2022/03/24 02:52:04;;;;;;;100.25;52.60;;;2.90;99.90;;;;;;4971600;28;20043;-82
2022/03/24 02:54:30;;;;;;;107.43;53.72;;;2.90;99.90;;;;;;4955455;28;20101;-82
2022/03/24 02:56:56;;;;;;;101.03;51.85;;;2.90;99.90;;;;;;4962914;28;20057;-82
2022/03/24 02:59:23;;;;;;;102.15;52.83;;;3.30;99.90;;;;;;4971351;28;20504;-82
2022/03/24 03:02:00;;;;;;;100.43;51.50;;;2.80;99.90;;;;;;4955722;28;20035;-84
2022/03/24 03:04:31;;;;;;;93.03;48.50;;;2.80;99.90;;;;;;4971600;28;20046;-84
2022/03/24 03:06:58;;;;;;;92.45;48.15;;;2.80;99.90;;;;;;4971596;28;20051;-84
2022/03/24 03:09:24;;;;;;;95.18;50.72;;;2.70;99.90;;;;;;4963018;28;20056;-84
2022/03/24 03:11:51;;;;;;;100.43;51.60;;;2.70;99.90;;;;;;4971477;28;20508;-84
2022/03/24 03:14:18;;;;;;;105.40;53.03;;;3.40;99.90;;;;;;4973357;28;20068;-84
2022/03/24 03:16:45;;;;;;;99.07;50.63;;;2.70;99.90;;;;;;4972939;28;20046;-84
2022/03/24 03:19:17;;;;;;;98.57;51.10;;;3.00;99.90;;;;;;4968111;28;20046;-82
2022/03/24 03:21:44;;;;;;;96.70;49.63;;;2.70;99.90;;;;;;4965556;28;20113;-82
2022/03/24 03:24:11;;;;;;;95.28;50.38;;;2.70;99.90;;;;;;4973361;28;20125;-82
2022/03/24 03:26:38;;;;;;;105.13;54.05;;;2.70;99.90;;;;;;4973133;28;20047;-82
2022/03/24 03:29:06;;;;;;;104.65;52.97;;;2.70;99.90;;;;;;4953931;28;20481;-83
2022/03/24 03:31:34;;;;;;;109.30;53.85;;;2.80;99.90;;;;;;4972179;28;20047;-84
2022/03/24 03:34:01;;;;;;;111.07;54.63;;;3.40;99.90;;;;;;4955156;28;20038;-85
2022/03/24 03:36:28;;;;;;;105.43;53.80;;;2.80;99.90;;;;;;4971318;28;20402;-85
2022/03/24 03:38:54;;;;;;;109.25;53.40;;;2.70;99.90;;;;;;4971190;28;20038;-86
2022/03/24 03:41:22;;;;;;;102.82;51.28;;;2.70;99.90;;;;;;4955484;28;20366;-85
2022/03/24 03:43:48;;;;;;;93.65;49.28;;;2.90;99.90;;;;;;4994085;28;20527;-85
2022/03/24 03:46:15;;;;;;;91.03;48.37;;;3.40;99.90;;;;;;4956379;28;20102;-85
2022/03/24 03:48:42;;;;;;;118.03;54.50;;;2.60;99.90;;;;;;4977963;28;20059;-85
2022/03/24 03:51:08;;;;;;;99.88;50.65;;;2.50;99.90;;;;;;4956722;28;20054;-85
2022/03/24 03:53:37;;;;;;;121.22;56.67;;;2.50;99.90;;;;;;4987459;28;20039;-82
2022/03/24 03:56:05;;;;;;;114.80;53.65;;;2.90;99.90;;;;;;4971249;28;20039;-82
2022/03/24 03:58:31;;;;;;;120.40;57.85;;;2.50;99.90;;;;;;4971218;28;20078;-85
2022/03/24 04:00:57;;;;;;;98.53;50.57;;;3.20;99.90;;;;;;4972919;28;20039;-85
2022/03/24 04:03:24;;;;;;;103.90;52.25;;;2.80;99.90;;;;;;4942166;28;20062;-85
2022/03/24 04:05:55;;;;;;;102.13;50.63;;;2.60;99.90;;;;;;4958361;28;20030;-85
2022/03/24 04:08:21;;;;;;;104.10;51.97;;;2.40;99.90;;;;;;4958466;28;20031;-84
2022/03/24 04:10:49;;;;;;;101.60;51.38;;;2.40;99.90;;;;;;4967681;28;20050;-84
2022/03/24 04:13:15;;;;;;;98.63;52.70;;;2.40;99.90;;;;;;4984518;28;20138;-84
2022/03/24 04:15:41;;;;;;;101.30;51.77;;;2.40;99.90;;;;;;4958688;28;20130;-85
2022/03/24 04:18:07;;;;;;;102.35;51.88;;;2.40;99.90;;;;;;4973738;28;20405;-84
2022/03/24 04:20:34;;;;;;;95.47;49.03;;;2.40;99.90;;;;;;4975576;28;20039;-84
2022/03/24 04:23:03;;;;;;;108.68;52.53;;;2.40;99.90;;;;;;4974439;28;20039;-84
2022/03/24 04:25:29;;;;;;;120.77;53.87;;;2.40;99.90;;;;;;4974671;28;20041;-83
2022/03/24 04:27:55;;;;;;;108.25;51.75;;;2.40;99.90;;;;;;4958589;28;20035;-83
2022/03/24 04:30:21;;;;;;;107.03;52.70;;;2.10;99.90;;;;;;4974664;28;20043;-83
2022/03/24 04:32:48;;;;;;;127.97;57.47;;;3.60;99.90;;;;;;4958363;28;20070;-84
2022/03/24 04:35:15;;;;;;;122.80;56.40;;;2.30;99.90;;;;;;4957887;28;20043;-84
2022/03/24 04:37:41;;;;;;;112.43;54.03;;;2.30;99.90;;;;;;4972931;28;20115;-84
2022/03/24 04:40:07;;;;;;;113.13;54.27;;;2.30;99.90;;;;;;4973993;28;20042;-84
2022/03/24 04:42:34;;;;;;;108.57;52.13;;;2.20;99.90;;;;;;4973905;28;20093;-82
2022/03/24 04:45:00;;;;;;;119.50;55.23;;;2.20;99.90;;;;;;4974527;28;20038;-82
2022/03/24 04:47:26;;;;;;;107.22;52.55;;;2.20;99.90;;;;;;4982299;28;20062;-82
2022/03/24 04:49:52;;;;;;;118.00;53.20;;;2.10;99.90;;;;;;4973854;28;20453;-83
2022/03/24 04:52:19;;;;;;;120.53;55.47;;;2.10;99.90;;;;;;4980801;28;20382;-82
2022/03/24 04:54:45;;;;;;;117.50;54.55;;;2.60;99.90;;;;;;4974175;28;20117;-82
2022/03/24 04:57:11;;;;;;;131.97;58.47;;;2.60;99.90;;;;;;4963002;28;20042;-83
2022/03/24 04:59:37;;;;;;;114.72;52.72;;;2.60;99.90;;;;;;4974100;28;20035;-84
2022/03/24 05:02:03;;;;;;;136.05;59.83;;;2.10;99.90;;;;;;4973441;28;20042;-84
2022/03/24 05:04:29;;;;;;;135.90;59.90;;;2.10;99.90;;;;;;4985303;28;20061;-84
2022/03/24 05:06:54;;;;;;;136.85;59.55;;;2.10;99.90;;;;;;4973597;28;20047;-84
2022/03/24 05:09:20;;;;;;;109.35;51.92;;;2.20;99.90;;;;;;4976583;28;20129;-84
2022/03/24 05:11:46;;;;;;;124.33;56.60;;;2.10;99.90;;;;;;4958959;28;20035;-84
2022/03/24 05:14:12;;;;;;;127.27;57.50;;;2.90;99.90;;;;;;4957761;28;20041;-84
2022/03/24 05:16:39;;;;;;;116.70;54.17;;;2.10;99.90;;;;;;4973479;28;20432;-84
2022/03/24 05:19:04;;;;;;;119.10;55.05;;;2.00;99.90;;;;;;4973079;28;20429;-84
2022/03/24 05:21:34;;;;;;;123.77;55.70;;;2.00;99.90;;;;;;4973523;28;20026;-82
2022/03/24 05:24:00;;;;;;;128.07;57.40;;;3.00;99.90;;;;;;4973509;28;20370;-82
2022/03/24 05:26:26;;;;;;;120.73;55.50;;;2.00;99.90;;;;;;4973177;28;20035;-82
2022/03/24 05:28:53;;;;;;;121.32;54.88;;;2.00;99.90;;;;;;4957125;28;20417;-82
2022/03/24 05:31:21;;;;;;;116.38;52.95;;;2.80;99.90;;;;;;4957492;28;20039;-84
2022/03/24 05:33:46;;;;;;;104.37;50.83;;;2.00;99.90;;;;;;4976490;28;20042;-83
2022/03/24 05:36:12;;;;;;;105.30;50.80;;;2.00;99.90;;;;;;4972477;28;20042;-83
2022/03/24 05:38:38;;;;;;;113.50;53.40;;;2.00;99.90;;;;;;4957333;28;20486;-83
2022/03/24 05:41:05;;;;;;;108.53;51.90;;;2.00;99.90;;;;;;4956916;28;20045;-82
2022/03/24 05:43:32;;;;;;;120.83;53.40;;;2.00;99.90;;;;;;4974129;28;20045;-82
2022/03/24 05:45:57;;;;;;;129.10;56.80;;;2.00;99.90;;;;;;4977604;28;20068;-83
2022/03/24 05:48:24;;;;;;;117.23;53.13;;;2.00;99.90;;;;;;4972872;28;20046;-82
2022/03/24 05:50:50;;;;;;;120.97;53.88;;;2.00;99.90;;;;;;4990860;28;20046;-83
2022/03/24 05:53:16;;;;;;;124.13;55.00;;;3.20;99.90;;;;;;4984030;28;20035;-83
2022/03/24 05:55:42;;;;;;;124.93;55.30;;;2.10;99.90;;;;;;4972802;28;20042;-83
2022/03/24 05:58:08;;;;;;;127.78;56.05;;;2.20;99.90;;;;;;4971167;28;20077;-82
2022/03/24 06:00:39;;;;;;;89.30;45.20;;;3.00;99.90;;;;;;4955592;28;20085;-83
2022/03/24 06:03:05;;;;;;;115.07;51.53;;;2.30;99.90;;;;;;4972480;28;20129;-83
2022/03/24 06:05:31;;;;;;;113.72;51.85;;;2.40;99.90;;;;;;4937293;28;20456;-84
2022/03/24 06:08:01;;;;;;;110.55;51.13;;;2.40;99.90;;;;;;4970966;28;20049;-84
2022/03/24 06:10:36;;;;;;;111.40;52.75;;;2.50;99.90;;;;;;4951409;28;20038;-84
2022/03/24 06:13:01;;;;;;;107.10;52.22;;;2.70;99.90;;;;;;4969913;28;20374;-84
2022/03/24 06:15:29;;;;;;;92.30;48.28;;;2.70;99.90;;;;;;4970347;28;20050;-84
2022/03/24 06:17:54;;;;;;;102.43;50.78;;;2.80;99.90;;;;;;4937884;28;20039;-84
2022/03/24 06:20:20;;;;;;;114.60;55.08;;;4.00;99.90;;;;;;4954538;28;20109;-85
2022/03/24 06:22:53;;;;;;;115.88;54.10;;;3.10;99.90;;;;;;4952874;28;20038;-85
2022/03/24 06:25:19;;;;;;;110.07;54.60;;;3.30;99.90;;;;;;4971802;28;20039;-84
2022/03/24 06:27:50;;;;;;;113.30;55.08;;;3.50;99.90;;;;;;4954590;28;20501;-84
2022/03/24 06:30:16;;;;;;;108.30;54.28;;;3.90;99.90;;;;;;4969237;28;20046;-85
2022/03/24 06:32:41;;;;;;;116.45;57.38;;;4.30;99.90;;;;;;4970104;28;20035;-85
2022/03/24 06:35:08;;;;;;;102.88;54.00;;;4.90;99.90;;;;;;4938252;28;20469;-85
2022/03/24 06:37:40;;;;;;;105.68;56.10;;;5.30;99.90;;;;;;4971084;28;20121;-86
2022/03/24 06:40:10;;;;;;;103.47;53.35;;;5.80;99.90;;;;;;4961516;28;20042;-82
2022/03/24 06:42:36;;;;;;;101.90;56.72;;;6.40;99.90;;;;;;4969194;28;20117;-82
2022/03/24 06:45:04;;;;;;;89.75;53.47;;;6.90;99.90;;;;;;4986203;28;20097;-82
2022/03/24 06:47:30;;;;;;;96.03;55.58;;;7.40;99.90;;;;;;4970510;28;20086;-82
2022/03/24 06:49:57;;;;;;;100.25;55.63;;;7.90;99.90;;;;;;4986056;28;20569;-82
2022/03/24 06:52:23;;;;;;;85.30;52.28;;;8.50;99.90;;;;;;4967638;28;20050;-82
2022/03/24 06:54:49;;;;;;;80.90;51.92;;;9.00;99.90;;;;;;4984786;28;20042;-82
2022/03/24 06:57:14;;;;;;;87.20;53.55;;;9.70;99.90;;;;;;4970256;28;20116;-82
2022/03/24 06:59:41;;;;;;;81.05;51.97;;;9.90;99.90;;;;;;4985711;28;20503;-83
2022/03/24 07:02:07;;;;;;;86.88;53.83;;;10.30;99.90;;;;;;4952098;28;20124;-83
2022/03/24 07:04:34;;;;;;;78.10;53.05;;;10.70;99.90;;;;;;4968991;28;20042;-83
2022/03/24 07:06:59;;;;;;;86.20;54.45;;;10.90;99.90;;;;;;4969148;28;20556;-83
2022/03/24 07:09:25;;;;;;;85.28;57.08;;;11.30;99.90;;;;;;4970697;28;20129;-83
2022/03/24 07:11:51;;;;;;;88.65;57.10;;;11.70;99.90;;;;;;4957240;28;20050;-87
2022/03/24 07:14:17;;;;;;;92.32;58.17;;;12.00;99.90;;;;;;4937900;28;20049;-87
2022/03/24 07:16:43;;;;;;;95.00;61.47;;;12.30;99.90;;;;;;4970504;28;20548;-87
2022/03/24 07:19:09;;;;;;;93.55;63.53;;;12.70;99.90;;;;;;4953818;28;20047;-87
2022/03/24 07:21:35;;;;;;;88.00;62.15;;;13.10;99.90;;;;;;4953510;28;20035;-88
2022/03/24 07:24:01;;;;;;;83.13;60.13;;;13.50;99.90;;;;;;4936994;28;20043;-88
2022/03/24 07:26:27;;;;;;;77.47;58.08;;;13.90;99.90;;;;;;4953459;28;20031;-88
2022/03/24 07:28:53;;;;;;;75.80;56.95;;;14.20;99.90;;;;;;4969121;28;20043;-84
2022/03/24 07:31:20;;;;;;;78.07;57.20;;;14.40;99.90;;;;;;4984872;28;20130;-84
2022/03/24 07:33:47;;;;;;;78.85;59.92;;;14.70;99.90;;;;;;4967810;28;20031;-84
2022/03/24 07:36:15;;;;;;;79.50;58.08;;;15.00;99.90;;;;;;4972409;28;20038;-84
2022/03/24 07:38:41;;;;;;;75.57;56.50;;;15.30;99.90;;;;;;4989591;28;20039;-84
2022/03/24 07:41:09;;;;;;;79.80;58.60;;;15.60;99.90;;;;;;4957318;28;20440;-84
2022/03/24 07:43:34;;;;;;;78.50;59.80;;;15.90;99.90;;;;;;4973419;28;20497;-84
2022/03/24 07:46:00;;;;;;;77.57;61.10;;;16.10;99.90;;;;;;4973027;28;20112;-89
2022/03/24 07:48:26;;;;;;;75.20;59.83;;;16.50;99.90;;;;;;4970647;28;20195;-90
2022/03/24 07:50:55;;;;;;;77.22;57.42;;;16.80;99.90;;;;;;4988455;28;20038;-89
2022/03/24 07:53:42;;;;;;;70.90;56.25;;;17.40;99.90;;;;;;4972128;28;20497;-89
2022/03/24 07:56:08;;;;;;;72.68;55.97;;;17.90;99.90;;;;;;4972006;28;20383;-89
2022/03/24 07:58:34;;;;;;;66.95;53.47;;;18.20;99.90;;;;;;4956682;28;20058;-88
2022/03/24 08:01:00;;;;;;;66.07;56.42;;;18.50;99.90;;;;;;4972482;28;20050;-87
2022/03/24 08:03:26;;;;;;;64.85;52.55;;;18.80;98.70;;;;;;4942624;28;20035;-87
2022/03/24 08:05:52;;;;;;;62.38;50.55;;;19.00;97.40;;;;;;4972115;28;20058;-87
2022/03/24 08:08:18;;;;;;;59.17;49.75;;;19.20;96.80;;;;;;4958156;28;20445;-88
2022/03/24 08:10:46;;;;;;;60.92;51.83;;;19.50;95.40;;;;;;4973946;28;20093;-88
2022/03/24 08:13:14;;;;;;;61.97;51.60;;;20.00;93.90;;;;;;4976433;28;20058;-88
2022/03/24 08:15:41;;;;;;;56.30;47.30;;;20.30;92.70;;;;;;4952096;28;20061;-88
2022/03/24 08:18:08;;;;;;;57.80;49.38;;;20.60;91.80;;;;;;4958486;28;20046;-90
2022/03/24 08:20:35;;;;;;;62.75;50.10;;;21.00;91.00;;;;;;4955838;28;20544;-90
2022/03/24 08:23:02;;;;;;;58.97;51.42;;;21.10;89.00;;;;;;4973869;28;20118;-90
2022/03/24 08:25:28;;;;;;;57.95;48.38;;;21.70;86.60;;;;;;4975345;28;20046;-91
2022/03/24 08:27:54;;;;;;;56.95;49.40;;;21.90;82.50;;;;;;4973246;28;20046;-88
2022/03/24 08:30:20;;;;;;;56.03;49.83;;;22.20;82.00;;;;;;4957426;28;20116;-88
2022/03/24 08:32:46;;;;;;;56.17;49.70;;;22.40;80.10;;;;;;4957046;28;20050;-88
2022/03/24 08:35:11;;;;;;;58.63;49.78;;;22.40;78.80;;;;;;4977230;28;20489;-89
2022/03/24 08:37:37;;;;;;;57.45;51.05;;;22.60;78.90;;;;;;4944953;28;20571;-90
2022/03/24 08:40:04;;;;;;;56.53;50.47;;;22.90;75.20;;;;;;4969633;28;20066;-89
2022/03/24 08:42:30;;;;;;;56.83;50.10;;;23.10;75.90;;;;;;4958653;28;20043;-90
2022/03/24 08:44:56;;;;;;;51.47;46.00;;;23.50;74.40;;;;;;4942771;28;20047;-90
2022/03/24 08:47:22;;;;;;;54.33;48.45;;;23.80;73.60;;;;;;4943153;28;20563;-92
2022/03/24 08:49:48;;;;;;;52.45;45.90;;;24.00;71.50;;;;;;4972301;28;20501;-90
2022/03/24 08:52:13;;;;;;;53.28;47.53;;;24.10;70.30;;;;;;4974968;28;20042;-85
2022/03/24 08:54:39;;;;;;;52.67;46.92;;;24.10;69.30;;;;;;4978229;28;20045;-85
2022/03/24 08:57:05;;;;;;;53.88;48.25;;;24.30;68.60;;;;;;4963246;28;20133;-85
2022/03/24 08:59:31;;;;;;;54.55;48.10;;;24.60;68.10;;;;;;4962240;28;20043;-85
2022/03/24 09:01:58;;;;;;;52.88;47.35;;;24.90;68.60;;;;;;4989802;23;20406;-84
2022/03/24 09:04:26;;;;;;;51.13;45.55;;;25.20;67.60;;;;;;4975788;28;20370;-83
2022/03/24 09:06:53;;;;;;;46.03;41.05;;;25.60;65.60;;;;;;4959304;28;20464;-83
2022/03/24 09:09:22;;;;;;;49.20;41.72;;;25.80;64.40;;;;;;4977286;28;20122;-89
2022/03/24 09:11:49;;;;;;;45.58;40.75;;;25.80;62.10;;;;;;4961566;28;20105;-89
2022/03/24 09:14:16;;;;;;;46.42;41.53;;;26.10;61.40;;;;;;4946272;28;20074;-89
2022/03/24 09:16:42;;;;;;;46.92;42.00;;;26.40;61.40;;;;;;4974397;28;20046;-89
2022/03/24 09:19:08;;;;;;;46.72;41.80;;;26.80;59.70;;;;;;4942530;28;20100;-89
2022/03/24 09:21:34;;;;;;;45.97;40.85;;;26.90;59.30;;;;;;4970822;28;20031;-89
2022/03/24 09:24:00;;;;;;;46.22;41.40;;;27.50;58.60;;;;;;4973459;28;20049;-90
2022/03/24 09:26:25;;;;;;;44.65;39.92;;;28.00;57.00;;;;;;4957200;28;20034;-80
2022/03/24 09:28:52;;;;;;;45.78;41.10;;;28.00;56.20;;;;;;4964985;28;20030;-80
2022/03/24 09:31:21;;;;;;;46.95;41.65;;;28.00;55.60;;;;;;4968229;28;20045;-80
2022/03/24 09:33:47;;;;;;;43.00;38.58;;;28.00;54.30;;;;;;4974876;28;20050;-80
2022/03/24 09:36:13;;;;;;;43.08;38.30;;;28.30;54.90;;;;;;4973234;28;20381;-80
2022/03/24 09:38:39;;;;;;;42.72;38.25;;;28.40;54.30;;;;;;4969930;28;20045;-80
2022/03/24 09:41:09;;;;;;;44.90;39.40;;;28.40;53.40;;;;;;4975308;28;20173;-80
2022/03/24 09:43:39;;;;;;;44.33;39.58;;;28.20;53.60;;;;;;4970408;28;20384;-87
2022/03/24 09:46:04;;;;;;;40.53;35.28;;;28.20;53.50;;;;;;4959222;28;20030;-88
2022/03/24 09:48:30;;;;;;;38.85;34.78;;;28.20;52.80;;;;;;4960923;28;20511;-88
2022/03/24 09:50:56;;;;;;;38.72;34.80;;;28.40;52.50;;;;;;4951222;28;20038;-88
2022/03/24 09:53:23;;;;;;;43.63;35.90;;;28.60;52.20;;;;;;4975427;28;20077;-89
2022/03/24 09:55:49;;;;;;;39.42;34.65;;;28.80;51.50;;;;;;4971217;28;20121;-88
2022/03/24 09:58:15;;;;;;;38.40;34.25;;;29.20;51.30;;;;;;4965674;28;20039;-84
2022/03/24 10:00:41;;;;;;;37.75;33.70;;;29.50;51.00;;;;;;4957067;28;20053;-83
2022/03/24 10:03:11;;;;;;;38.30;34.03;;;29.50;51.00;;;;;;4961738;28;20077;-83
2022/03/24 10:05:59;;;;;;;38.90;34.92;;;29.70;49.50;;;;;;4960434;28;20078;-83
2022/03/24 10:08:27;;;;;;;34.42;30.67;;;29.80;47.50;;;;;;4989312;28;20042;-82
2022/03/24 10:11:11;;;;;;;35.75;28.98;;;29.80;48.70;;;;;;4974138;28;20038;-82
2022/03/24 10:13:58;;;;;;;35.67;29.52;;;30.20;45.00;;;;;;4971039;28;20060;-83
2022/03/24 10:16:33;;;;;;;35.28;29.08;;;30.20;46.40;;;;;;4987620;28;20053;-80
2022/03/24 10:19:07;;;;;;;33.83;30.15;;;30.30;45.60;;;;;;4984073;28;20039;-80
2022/03/24 10:21:34;;;;;;;;;;;30.30;45.00;;;;;;4991689;28;20054;-80
2022/03/24 10:24:26;;;;;;;35.78;32.05;;;30.00;45.00;;;;;;5007219;28;19925;-80
2022/03/24 10:27:03;;;;;;;37.35;33.30;;;30.20;46.60;;;;;;4985143;28;20046;-80
2022/03/24 10:29:30;;;;;;;36.35;31.95;;;30.40;46.10;;;;;;4991694;28;20393;-80
2022/03/24 10:31:57;;;;;;;34.00;30.48;;;30.70;46.80;;;;;;4992806;28;20173;-84
2022/03/24 10:34:36;;;;;;;33.75;30.25;;;30.70;46.20;;;;;;4973360;28;20099;-83
2022/03/24 10:37:09;;;;;;;33.58;30.17;;;30.70;45.20;;;;;;4971732;28;20046;-84
2022/03/24 10:39:37;;;;;;;30.80;24.90;;;30.60;45.40;;;;;;4989700;28;20725;-84
2022/03/24 10:42:17;;;;;;;28.20;25.33;;;31.00;45.10;;;;;;4991134;28;20123;-84
2022/03/24 10:45:11;;;;;;;25.00;21.25;;;31.20;43.50;;;;;;4990372;28;20034;-83
2022/03/24 10:47:52;;;;;;;28.40;21.98;;;31.60;42.80;;;;;;4989401;28;20133;-84
2022/03/24 10:50:33;;;;;;;28.30;25.30;;;31.60;42.30;;;;;;4987633;28;20050;-84
2022/03/24 10:53:05;;;;;;;28.27;23.25;;;31.40;43.50;;;;;;4990411;28;20129;-86
2022/03/24 10:55:36;;;;;;;27.75;24.92;;;31.50;42.20;;;;;;4975659;28;20047;-84
2022/03/24 10:58:09;;;;;;;27.48;24.48;;;31.30;43.60;;;;;;4986752;28;20130;-84
2022/03/24 11:00:39;;;;;;;29.38;26.23;;;31.50;42.90;;;;;;4986639;28;20051;-84
2022/03/24 11:03:05;;;;;;;29.80;26.65;;;31.70;43.90;;;;;;4987774;28;20129;-84
2022/03/24 11:05:32;;;;;;;33.65;30.00;;;31.80;44.10;;;;;;4974676;28;20073;-89
2022/03/24 11:07:57;;;;;;;31.98;28.08;;;31.30;43.00;;;;;;4986937;28;20597;-92
2022/03/24 11:10:23;;;;;;;30.17;27.17;;;31.20;44.10;;;;;;4953900;28;20129;-91
2022/03/24 11:12:54;;;;;;;33.85;30.02;;;31.40;44.40;;;;;;4971926;28;20178;-89
2022/03/24 11:15:20;;;;;;;33.17;29.38;;;31.80;44.10;;;;;;4978893;28;20384;-90
2022/03/24 11:17:47;;;;;;;36.90;33.35;;;32.00;43.60;;;;;;4983829;28;20493;-90
2022/03/24 11:20:13;;;;;;;36.30;32.53;;;32.10;43.60;;;;;;4973602;28;20074;-89
2022/03/24 11:23:01;;;;;;;34.10;30.42;;;32.30;43.60;;;;;;4982543;28;20073;-89
2022/03/24 11:25:29;;;;;;;35.42;31.77;;;32.00;43.30;;;;;;4983672;28;20528;-90
2022/03/24 11:27:56;;;;;;;38.92;32.03;;;32.10;43.00;;;;;;4968612;28;20034;-90
2022/03/24 11:30:23;;;;;;;36.03;31.20;;;32.10;42.80;;;;;;4961858;28;20045;-90
2022/03/24 11:32:50;;;;;;;34.70;30.95;;;32.20;42.90;;;;;;4986751;28;20042;-90
2022/03/24 11:35:17;;;;;;;35.75;31.90;;;32.70;43.10;;;;;;4989120;28;20133;-90
2022/03/24 11:37:44;;;;;;;37.28;33.30;;;32.80;42.00;;;;;;4973344;28;20038;-90
2022/03/24 11:40:13;;;;;;;37.45;33.55;;;32.50;42.00;;;;;;4978971;28;20154;-83
2022/03/24 11:43:03;;;;;;;36.15;32.30;;;32.40;42.10;;;;;;4972492;28;20054;-83
2022/03/24 11:45:32;;;;;;;34.67;31.17;;;32.20;41.30;;;;;;4987475;28;20369;-84
2022/03/24 11:48:08;;;;;;;39.45;32.42;;;32.10;41.90;;;;;;4972600;28;20046;-84
2022/03/24 11:50:52;;;;;;;35.53;31.08;;;31.70;42.50;;;;;;4982637;28;20045;-83
2022/03/24 11:53:29;;;;;;;36.38;32.45;;;31.80;42.40;;;;;;4988289;28;20094;-83
2022/03/24 11:56:01;;;;;;;35.40;31.67;;;32.00;41.50;;;;;;4987661;28;20053;-89
2022/03/24 11:58:35;;;;;;;38.38;31.38;;;31.90;41.50;;;;;;4988674;28;20044;-90
2022/03/24 12:01:21;;;;;;;35.25;31.42;;;31.90;41.90;;;;;;4984098;28;20148;-89
2022/03/24 12:03:53;;;;;;;33.05;29.33;;;31.50;41.70;;;;;;4962223;28;20132;-90
2022/03/24 12:06:19;;;;;;;34.65;30.27;;;32.00;41.90;;;;;;4943869;28;20478;-90
2022/03/24 12:09:00;;;;;;;35.63;31.92;;;32.00;41.80;;;;;;4952439;28;20125;-90
2022/03/24 12:11:32;;;;;;;35.58;31.33;;;31.90;41.90;;;;;;4952865;28;20117;-83
2022/03/24 12:13:59;;;;;;;36.97;32.75;;;31.80;41.50;;;;;;4952041;28;20097;-83
2022/03/24 12:16:27;;;;;;;33.35;29.13;;;31.40;42.00;;;;;;4936437;28;20070;-83
2022/03/24 12:18:53;;;;;;;34.70;31.00;;;31.40;42.30;;;;;;4952035;28;20042;-83
2022/03/24 12:21:21;;;;;;;33.75;29.88;;;31.60;42.40;;;;;;4953629;28;20038;-83
2022/03/24 12:24:06;;;;;;;34.08;30.38;;;31.70;42.20;;;;;;4954319;28;20042;-83
2022/03/24 12:26:50;;;;;;;34.60;29.33;;;31.40;41.60;;;;;;4938694;28;20101;-83
2022/03/24 12:29:26;;;;;;;34.55;29.30;;;31.30;40.60;;;;;;4940450;28;20049;-83
2022/03/24 12:31:58;;;;;;;34.00;29.05;;;31.20;41.00;;;;;;4939492;28;20097;-83
2022/03/24 12:34:45;;;;;;;33.80;27.60;;;30.80;41.50;;;;;;4955699;28;20518;-83
2022/03/24 12:37:22;;;;;;;31.42;25.55;;;30.80;41.50;;;;;;4953164;28;20038;-83